createdAt,value
2023-02-15T00:03:52.519Z,-130.88357
2023-02-15T00:08:53.443Z,-131.04087
2023-02-15T00:13:54.374Z,-130.49706
2023-02-15T00:18:55.302Z,-130.74484
2023-02-15T00:23:56.218Z,-130.1318
2023-02-15T00:28:57.135Z,-129.49267
2023-02-15T00:33:58.057Z,-129.36818
2023-02-15T00:38:59.045Z,-128.934
2023-02-15T00:44:00.016Z,-128.73336
2023-02-15T00:49:00.976Z,-128.76744
2023-02-15T00:54:02.243Z,-128.51982
2023-02-15T00:59:03.217Z,-128.41638
2023-02-15T01:04:04.221Z,-128.42834
2023-02-15T01:09:05.177Z,-128.00551
2023-02-15T01:14:06.200Z,-128.07666
2023-02-15T01:19:07.139Z,-127.9465
2023-02-15T01:24:08.052Z,-127.26856
2023-02-15T01:29:08.991Z,-126.70902
2023-02-15T01:34:10.149Z,-125.87431
2023-02-15T01:39:11.104Z,-125.25289
2023-02-15T01:44:12.029Z,-124.97538
2023-02-15T01:49:12.931Z,-124.56598
2023-02-15T01:54:13.867Z,-124.06156
2023-02-15T01:59:14.771Z,-123.09944
2023-02-15T02:04:15.672Z,-123.32869
2023-02-15T02:09:16.611Z,-122.91236
2023-02-15T02:14:17.653Z,-122.48995
2023-02-15T02:19:18.574Z,-121.98918
2023-02-15T02:24:19.535Z,-122.03798
2023-02-15T02:29:20.501Z,-122.06788
2023-02-15T02:34:21.407Z,-121.76747
2023-02-15T02:39:22.351Z,-121.40697
2023-02-15T02:44:23.301Z,-121.06714
2023-02-15T02:49:24.216Z,-120.87698
2023-02-15T02:54:25.146Z,-120.35963
2023-02-15T02:59:26.071Z,-119.38574
2023-02-15T03:04:27.019Z,-119.13833
2023-02-15T03:09:27.945Z,-118.80745
2023-02-15T03:14:28.867Z,-118.9107
2023-02-15T03:19:29.801Z,-118.18089
2023-02-15T03:24:30.714Z,-118.1569
2023-02-15T03:29:31.640Z,-118.46247
2023-02-15T03:34:32.783Z,-118.67596
2023-02-15T03:39:33.967Z,-118.70564
2023-02-15T03:44:35.151Z,-118.24457
2023-02-15T03:49:36.137Z,-117.93777
2023-02-15T03:54:37.315Z,-117.77714
2023-02-15T03:59:38.192Z,-117.20689
2023-02-15T04:04:39.153Z,-116.91455
2023-02-15T04:09:40.068Z,-116.58657
2023-02-15T04:14:41.018Z,-116.25338
2023-02-15T04:19:42.021Z,-116.03511
2023-02-15T04:24:42.967Z,-115.34199
2023-02-15T04:29:43.972Z,-114.85324
2023-02-15T04:34:44.910Z,-114.76072
2023-02-15T04:39:45.801Z,-114.21844
2023-02-15T04:44:46.711Z,-113.95448
2023-02-15T04:49:47.624Z,-114.08763
2023-02-15T04:54:48.619Z,-113.79825
2023-02-15T04:59:49.550Z,-113.03598
2023-02-15T05:04:50.632Z,-112.15504
2023-02-15T05:09:51.526Z,-111.57337
2023-02-15T05:14:52.507Z,-111.2936
2023-02-15T05:19:53.401Z,-110.97922
2023-02-15T05:24:54.343Z,-110.81863
2023-02-15T05:29:55.332Z,-110.62113
2023-02-15T05:34:56.307Z,-110.67816
2023-02-15T05:39:57.232Z,-110.80872
2023-02-15T05:44:58.143Z,-110.77678
2023-02-15T05:49:59.059Z,-110.33117
2023-02-15T05:54:59.968Z,-109.64697
2023-02-15T06:00:00.846Z,-110.03344
2023-02-15T06:05:01.820Z,-110.30872
2023-02-15T06:10:02.722Z,-109.71005
2023-02-15T06:15:03.748Z,-110.16789
2023-02-15T06:20:04.668Z,-110.24086
2023-02-15T06:25:05.687Z,-110.28597
2023-02-15T06:30:06.678Z,-110.01111
2023-02-15T06:35:07.620Z,-109.47953
2023-02-15T06:40:08.534Z,-109.41633
2023-02-15T06:45:09.527Z,-109.37399
2023-02-15T06:50:10.465Z,-109.29542
2023-02-15T06:55:11.422Z,-108.98835
2023-02-15T07:00:12.347Z,-108.57747
2023-02-15T07:05:13.381Z,-108.63992
2023-02-15T07:10:14.330Z,-108.25857
2023-02-15T07:15:15.254Z,-108.21526
2023-02-15T07:20:16.198Z,-107.90431
2023-02-15T07:25:17.128Z,-107.71972
2023-02-15T07:30:18.193Z,-107.47859
2023-02-15T07:35:19.214Z,-106.64562
2023-02-15T07:40:20.125Z,-105.8603
2023-02-15T07:45:21.045Z,-105.3846
2023-02-15T07:50:21.985Z,-104.31829
2023-02-15T07:55:22.897Z,-104.25446
2023-02-15T08:00:23.829Z,-104.78622
2023-02-15T08:05:24.784Z,-104.19288
2023-02-15T08:10:25.706Z,-104.45747
2023-02-15T08:15:26.702Z,-104.65164
2023-02-15T08:20:27.641Z,-104.433
2023-02-15T08:25:28.579Z,-103.78722
2023-02-15T08:30:29.717Z,-103.83615
2023-02-15T08:35:30.709Z,-103.53239
2023-02-15T08:40:31.637Z,-103.50773
2023-02-15T08:45:33.077Z,-102.68096
2023-02-15T08:50:34.040Z,-101.97089
2023-02-15T08:55:35.233Z,-101.64342
2023-02-15T09:00:36.422Z,-101.24519
2023-02-15T09:05:37.361Z,-100.8674
2023-02-15T09:10:38.274Z,-100.1671
2023-02-15T09:15:39.201Z,-100.08535
2023-02-15T09:20:40.101Z,-99.37557
2023-02-15T09:25:41.032Z,-99.49005
2023-02-15T09:30:42.072Z,-99.99854
2023-02-15T09:35:43.052Z,-100.3022
2023-02-15T09:40:43.977Z,-100.49997
2023-02-15T09:45:44.944Z,-100.35819
2023-02-15T09:50:45.848Z,-100.21159
2023-02-15T09:55:46.764Z,-100.16309
2023-02-15T10:00:47.675Z,-99.26778
2023-02-15T10:05:48.671Z,-98.37844
2023-02-15T10:10:49.579Z,-97.75797
2023-02-15T10:15:50.512Z,-97.72581
2023-02-15T10:20:51.433Z,-97.92493
2023-02-15T10:25:52.336Z,-97.4721
2023-02-15T10:30:53.336Z,-97.20027
2023-02-15T10:35:54.259Z,-96.3489
2023-02-15T10:40:55.164Z,-95.90709
2023-02-15T10:45:56.235Z,-95.28578
2023-02-15T10:50:57.161Z,-94.7046
2023-02-15T10:55:58.064Z,-93.81207
2023-02-15T11:00:59.011Z,-93.52185
2023-02-15T11:05:59.950Z,-93.16214
2023-02-15T11:11:01.246Z,-92.65932
2023-02-15T11:16:02.453Z,-92.15223
2023-02-15T11:21:03.695Z,-91.86863
2023-02-15T11:26:04.848Z,-91.24932
2023-02-15T11:31:06.283Z,-90.75284
2023-02-15T11:36:07.388Z,-89.60606
2023-02-15T11:41:08.262Z,-88.76293
2023-02-15T11:46:11.321Z,-87.84712
2023-02-15T11:51:13.209Z,-86.85955
2023-02-15T11:56:14.140Z,-86.6963
2023-02-15T12:01:15.063Z,-86.59706
2023-02-15T12:06:15.995Z,-86.60136
2023-02-15T12:11:16.927Z,-86.52419
2023-02-15T12:16:17.953Z,-86.45915
2023-02-15T12:21:19.145Z,-86.33313
2023-02-15T12:26:20.169Z,-85.60301
2023-02-15T12:31:21.239Z,-84.6706
2023-02-15T12:36:22.295Z,-83.88692
2023-02-15T12:41:23.245Z,-82.71192
2023-02-15T12:46:24.285Z,-81.72042
2023-02-15T12:51:25.324Z,-81.06277
2023-02-15T12:56:26.244Z,-80.20404
2023-02-15T13:01:27.235Z,-79.29594
2023-02-15T13:06:28.166Z,-77.71145
2023-02-15T13:11:31.151Z,-77.6993
2023-02-15T13:16:32.418Z,-77.22494
2023-02-15T13:21:33.791Z,-76.54376
2023-02-15T13:26:35.011Z,-76.37462
2023-02-15T13:31:36.348Z,-76.64723
2023-02-15T13:36:37.314Z,-76.095
2023-02-15T13:41:38.280Z,-74.68711
2023-02-15T13:46:39.172Z,-74.55027
2023-02-15T13:51:40.108Z,-74.24956
2023-02-15T13:56:41.024Z,-73.65863
2023-02-15T14:01:41.949Z,-73.50818
2023-02-15T14:06:42.876Z,-73.89628
2023-02-15T14:11:43.805Z,-74.03994
2023-02-15T14:16:54.467Z,-74.12139
2023-02-15T14:22:05.466Z,-74.71745
2023-02-15T14:27:06.388Z,-74.90505
2023-02-15T14:32:07.405Z,-74.63457
2023-02-15T14:37:08.328Z,-73.68212
2023-02-15T14:42:09.239Z,-73.66327
2023-02-15T14:47:10.160Z,-72.92573
2023-02-15T14:52:11.102Z,-73.05879
2023-02-15T14:57:12.037Z,-72.91672
2023-02-15T15:02:13.017Z,-73.19241
2023-02-15T15:07:13.945Z,-72.23035
2023-02-15T15:12:14.858Z,-71.71523
2023-02-15T15:17:15.840Z,-71.68409
2023-02-15T15:22:16.723Z,-71.54929
2023-02-15T15:27:17.625Z,-71.29246
2023-02-15T15:32:18.599Z,-71.4971
2023-02-15T15:37:19.656Z,-71.61221
2023-02-15T15:42:20.806Z,-71.65013
2023-02-15T15:47:21.703Z,-71.73238
2023-02-15T15:52:22.666Z,-71.74617
2023-02-15T15:57:23.582Z,-71.81574
2023-02-15T16:02:24.619Z,-72.09261
2023-02-15T16:07:25.598Z,-72.07586
2023-02-15T16:12:26.542Z,-71.75231
2023-02-15T16:17:27.466Z,-71.02712
2023-02-15T16:22:28.364Z,-70.3994
2023-02-15T16:27:29.492Z,-70.64037
2023-02-15T16:32:30.411Z,-69.97122
2023-02-15T16:37:31.328Z,-69.65429
2023-02-15T16:42:32.267Z,-69.59537
2023-02-15T16:47:33.493Z,-69.34961
2023-02-15T16:52:34.696Z,-70.18138
2023-02-15T16:57:35.614Z,-69.92681
2023-02-15T17:02:54.922Z,-70.13781
2023-02-15T17:07:56.822Z,-69.74654
2023-02-15T17:12:57.729Z,-69.97076
2023-02-15T17:17:58.645Z,-70.63462
2023-02-15T17:22:59.600Z,-70.69849
2023-02-15T17:28:00.503Z,-70.32951
2023-02-15T17:33:01.528Z,-70.03551
2023-02-15T17:38:02.452Z,-70.0315
2023-02-15T17:43:03.367Z,-70.23625
2023-02-15T17:48:04.306Z,-70.35315
2023-02-15T17:53:05.267Z,-69.61989
2023-02-15T17:58:06.231Z,-69.90992
2023-02-15T18:03:07.164Z,-70.81825
2023-02-15T18:08:08.109Z,-70.06506
2023-02-15T18:13:09.052Z,-70.22629
2023-02-15T18:18:10.002Z,-70.00036
2023-02-15T18:23:10.922Z,-69.525
2023-02-15T18:28:11.834Z,-69.68157
2023-02-15T18:33:12.785Z,-69.29432
2023-02-15T18:38:13.711Z,-68.66237
2023-02-15T18:43:14.601Z,-68.70742
2023-02-15T18:48:15.557Z,-68.76266
2023-02-15T18:53:16.522Z,-68.49492
2023-02-15T18:58:17.479Z,-68.31917
2023-02-15T19:03:18.442Z,-67.72918
2023-02-15T19:08:19.387Z,-67.50774
2023-02-15T19:13:20.328Z,-67.04304
2023-02-15T19:18:21.260Z,-67.15096
2023-02-15T19:23:22.250Z,-66.98668
2023-02-15T19:28:23.206Z,-66.99634
2023-02-15T19:33:24.157Z,-66.03597
2023-02-15T19:38:25.099Z,-66.22418
2023-02-15T19:43:26.482Z,-65.15295
2023-02-15T19:48:27.492Z,-65.03965
2023-02-15T19:53:28.496Z,-64.52419
2023-02-15T19:58:29.448Z,-64.27278
2023-02-15T20:03:30.443Z,-63.73571
2023-02-15T20:08:31.340Z,-63.44919
2023-02-15T20:13:32.272Z,-62.65858
2023-02-15T20:18:33.314Z,-62.30996
2023-02-15T20:23:34.233Z,-61.81564
2023-02-15T20:28:35.468Z,-61.61476
2023-02-15T20:33:36.704Z,-61.90808
2023-02-15T20:38:37.908Z,-61.55952
2023-02-15T20:43:38.896Z,-61.8801
2023-02-15T20:48:39.861Z,-61.60848
2023-02-15T20:53:40.794Z,-61.32561
2023-02-15T20:58:41.760Z,-61.53363
2023-02-15T21:03:42.815Z,-61.23332
2023-02-15T21:08:43.764Z,-61.53109
2023-02-15T21:13:44.705Z,-62.2858
2023-02-15T21:18:45.634Z,-62.71514
2023-02-15T21:23:46.560Z,-62.35731
2023-02-15T21:28:47.489Z,-62.48018
2023-02-15T21:33:48.450Z,-61.98963
2023-02-15T21:38:49.394Z,-61.51797
2023-02-15T21:43:50.410Z,-61.52102
2023-02-15T21:48:51.330Z,-61.64009
2023-02-15T21:53:52.283Z,-61.74028
2023-02-15T21:58:53.241Z,-61.52282
2023-02-15T22:03:54.195Z,-61.54776
2023-02-15T22:08:55.247Z,-61.79872
2023-02-15T22:13:56.174Z,-61.94207
2023-02-15T22:18:57.194Z,-62.33945
2023-02-15T22:23:58.171Z,-61.66436
2023-02-15T22:28:59.132Z,-61.39145
2023-02-15T22:34:00.068Z,-61.64844
2023-02-15T22:39:01.003Z,-61.44133
2023-02-15T22:44:02.030Z,-61.07499
2023-02-15T22:49:03.055Z,-61.40689
2023-02-15T22:54:03.963Z,-61.0608
2023-02-15T22:59:04.992Z,-60.83747
2023-02-15T23:04:05.974Z,-60.49892
2023-02-15T23:09:06.935Z,-59.45402
2023-02-15T23:14:07.825Z,-58.87424
2023-02-15T23:19:08.786Z,-59.45562
2023-02-15T23:24:09.786Z,-59.85446
2023-02-15T23:29:11.012Z,-60.20383
2023-02-15T23:34:11.993Z,-60.27327
2023-02-15T23:39:12.976Z,-60.33812
2023-02-15T23:44:13.944Z,-59.78707
2023-02-15T23:49:15.176Z,-59.97277
2023-02-15T23:54:16.206Z,-60.03682
2023-02-15T23:59:17.142Z,-60.11534
